createdAt,value
2019-01-14T00:00:39.952Z,1000.52
2019-01-14T00:01:39.940Z,1000.58
2019-01-14T00:02:39.953Z,1000.52
2019-01-14T00:03:39.918Z,1000.51
2019-01-14T00:04:39.911Z,1000.50
2019-01-14T00:05:39.897Z,1000.50
2019-01-14T00:06:39.890Z,1000.52
2019-01-14T00:07:39.893Z,1000.55
2019-01-14T00:08:39.864Z,1000.49
2019-01-14T00:09:39.853Z,1000.52
2019-01-14T00:10:39.843Z,1000.58
2019-01-14T00:11:39.830Z,1000.50
2019-01-14T00:12:39.842Z,1000.51
2019-01-14T00:13:39.812Z,1000.58
2019-01-14T00:14:39.799Z,1000.65
2019-01-14T00:15:39.788Z,1000.55
2019-01-14T00:16:39.776Z,1000.65
2019-01-14T00:17:39.789Z,1000.70
2019-01-14T00:18:39.753Z,1000.65
2019-01-14T00:19:39.748Z,1000.77
2019-01-14T00:20:39.732Z,1000.64
2019-01-14T00:21:39.722Z,1000.74
2019-01-14T00:22:39.713Z,1000.77
2019-01-14T00:23:40.172Z,1000.83
2019-01-14T00:24:39.689Z,1000.88
2019-01-14T00:25:39.678Z,1000.88
2019-01-14T00:26:39.668Z,1000.89
2019-01-14T00:27:39.675Z,1000.81
2019-01-14T00:28:39.647Z,1000.83
2019-01-14T00:29:39.634Z,1000.71
2019-01-14T00:30:39.622Z,1000.71
2019-01-14T00:31:39.615Z,1000.80
2019-01-14T00:32:39.628Z,1000.75
2019-01-14T00:33:39.591Z,1000.84
2019-01-14T00:34:39.582Z,1000.82
2019-01-14T00:35:39.568Z,1000.78
2019-01-14T00:36:39.561Z,1000.87
2019-01-14T00:37:39.548Z,1000.78
2019-01-14T00:38:39.557Z,1000.82
2019-01-14T00:39:39.526Z,1000.82
2019-01-14T00:40:39.513Z,1000.85
2019-01-14T00:41:39.502Z,1000.83
2019-01-14T00:42:39.490Z,1000.86
2019-01-14T00:43:40.176Z,1000.85
2019-01-14T00:44:39.470Z,1000.91
2019-01-14T00:45:39.458Z,1000.85
2019-01-14T00:46:39.448Z,1000.96
2019-01-14T00:47:39.435Z,1001.03
2019-01-14T00:48:39.447Z,1001.00
2019-01-14T00:49:39.419Z,1000.98
2019-01-14T00:50:39.403Z,1001.10
2019-01-14T00:51:39.392Z,1001.11
2019-01-14T00:52:39.386Z,1001.16
2019-01-14T00:53:40.175Z,1001.13
2019-01-14T00:54:39.359Z,1001.22
2019-01-14T00:55:39.356Z,1001.18
2019-01-14T00:56:39.357Z,1001.24
2019-01-14T00:57:39.328Z,1001.30
2019-01-14T00:58:39.317Z,1001.40
2019-01-14T00:59:39.325Z,1001.31
2019-01-14T01:00:39.296Z,1001.37
2019-01-14T01:01:39.283Z,1001.42
2019-01-14T01:02:39.273Z,1001.45
2019-01-14T01:03:39.265Z,1001.47
2019-01-14T01:04:39.271Z,1001.39
2019-01-14T01:05:39.239Z,1001.38
2019-01-14T01:06:39.227Z,1001.40
2019-01-14T01:07:39.217Z,1001.48
2019-01-14T01:08:39.206Z,1001.44
2019-01-14T01:09:39.215Z,1001.65
2019-01-14T01:10:39.183Z,1001.77
2019-01-14T01:11:39.174Z,1001.72
2019-01-14T01:12:39.162Z,1001.71
2019-01-14T01:13:39.150Z,1001.71
2019-01-14T01:14:40.678Z,1001.89
2019-01-14T01:15:39.133Z,1001.82
2019-01-14T01:16:39.118Z,1001.79
2019-01-14T01:17:39.107Z,1001.73
2019-01-14T01:18:39.097Z,1001.71
2019-01-14T01:19:39.104Z,1001.71
2019-01-14T01:20:39.074Z,1001.74
2019-01-14T01:21:39.067Z,1001.67
2019-01-14T01:22:39.053Z,1001.96
2019-01-14T01:23:39.041Z,1001.74
2019-01-14T01:24:39.054Z,1001.80
2019-01-14T01:25:39.021Z,1001.79
2019-01-14T01:26:39.009Z,1001.87
2019-01-14T01:27:38.998Z,1001.80
2019-01-14T01:28:38.986Z,1001.74
2019-01-14T01:29:39.001Z,1001.86
2019-01-14T01:30:38.963Z,1001.85
2019-01-14T01:31:38.958Z,1001.82
2019-01-14T01:32:38.945Z,1001.82
2019-01-14T01:33:38.933Z,1001.83
2019-01-14T01:34:38.942Z,1001.82
2019-01-14T01:35:38.912Z,1001.88
2019-01-14T01:36:38.898Z,1001.81
2019-01-14T01:37:38.889Z,1001.85
2019-01-14T01:38:38.878Z,1001.82
2019-01-14T01:39:38.885Z,1001.74
2019-01-14T01:40:38.854Z,1001.67
2019-01-14T01:41:38.844Z,1001.79
2019-01-14T01:42:38.834Z,1001.81
2019-01-14T01:43:38.822Z,1001.70
2019-01-14T01:44:38.836Z,1001.96
2019-01-14T01:45:38.802Z,1001.78
2019-01-14T01:46:38.788Z,1001.84
2019-01-14T01:47:38.782Z,1001.83
2019-01-14T01:48:38.768Z,1001.86
2019-01-14T01:49:38.782Z,1001.97
2019-01-14T01:50:38.745Z,1001.86
2019-01-14T01:51:38.735Z,1001.96
2019-01-14T01:52:38.723Z,1002.06
2019-01-14T01:53:38.713Z,1001.89
2019-01-14T01:54:38.704Z,1002.17
2019-01-14T01:55:38.714Z,1001.99
2019-01-14T01:56:38.682Z,1002.09
2019-01-14T01:57:38.671Z,1002.03
2019-01-14T01:58:38.663Z,1002.09
2019-01-14T01:59:38.647Z,1002.16
2019-01-14T02:00:38.658Z,1001.93
2019-01-14T02:01:38.627Z,1002.10
2019-01-14T02:02:38.615Z,1002.13
2019-01-14T02:03:38.603Z,1002.04
2019-01-14T02:04:38.592Z,1002.15
2019-01-14T02:05:39.220Z,1002.09
2019-01-14T02:06:39.292Z,1002.09
2019-01-14T02:07:38.561Z,1002.19
2019-01-14T02:08:38.549Z,1002.14
2019-01-14T02:09:38.539Z,1002.17
2019-01-14T02:10:38.527Z,1002.16
2019-01-14T02:11:38.536Z,1002.19
2019-01-14T02:12:38.508Z,1002.17
2019-01-14T02:13:38.496Z,1002.22
2019-01-14T02:14:38.483Z,1002.33
2019-01-14T02:15:38.497Z,1002.27
2019-01-14T02:16:38.463Z,1002.22
2019-01-14T02:17:38.452Z,1002.32
2019-01-14T02:18:38.439Z,1002.33
2019-01-14T02:19:38.430Z,1002.30
2019-01-14T02:20:38.418Z,1002.29
2019-01-14T02:21:38.426Z,1002.32
2019-01-14T02:22:38.397Z,1002.25
2019-01-14T02:23:38.385Z,1002.37
2019-01-14T02:24:38.373Z,1002.31
2019-01-14T02:25:38.362Z,1002.42
2019-01-14T02:26:38.375Z,1002.30
2019-01-14T02:27:38.342Z,1002.32
2019-01-14T02:28:38.330Z,1002.34
2019-01-14T02:29:38.318Z,1002.37
2019-01-14T02:30:38.313Z,1002.43
2019-01-14T02:31:38.317Z,1002.41
2019-01-14T02:32:38.293Z,1002.40
2019-01-14T02:33:38.276Z,1002.40
2019-01-14T02:34:38.265Z,1002.44
2019-01-14T02:35:38.254Z,1002.48
2019-01-14T02:36:38.274Z,1002.40
2019-01-14T02:37:38.231Z,1002.44
2019-01-14T02:38:38.220Z,1002.41
2019-01-14T02:39:38.211Z,1002.52
2019-01-14T02:40:38.198Z,1002.42
2019-01-14T02:41:38.186Z,1002.48
2019-01-14T02:42:38.201Z,1002.54
2019-01-14T02:43:38.166Z,1002.49
2019-01-14T02:44:38.155Z,1002.51
2019-01-14T02:45:38.148Z,1002.43
2019-01-14T02:46:38.137Z,1002.49
2019-01-14T02:47:38.146Z,1002.57
2019-01-14T02:48:38.112Z,1002.61
2019-01-14T02:49:38.102Z,1002.59
2019-01-14T02:50:38.088Z,1002.59
2019-01-14T02:51:38.079Z,1002.58
2019-01-14T02:52:39.664Z,1002.60
2019-01-14T02:53:38.055Z,1002.63
2019-01-14T02:54:38.043Z,1002.56
2019-01-14T02:55:38.035Z,1002.61
2019-01-14T02:56:38.026Z,1002.65
2019-01-14T02:57:38.037Z,1002.71
2019-01-14T02:58:38.000Z,1002.68
2019-01-14T02:59:37.991Z,1002.60
2019-01-14T03:00:37.983Z,1002.66
2019-01-14T03:01:37.968Z,1002.67
2019-01-14T03:02:37.960Z,1002.75
2019-01-14T03:03:37.966Z,1002.77
2019-01-14T03:04:37.936Z,1002.74
2019-01-14T03:05:37.925Z,1002.73
2019-01-14T03:06:37.913Z,1002.73
2019-01-14T03:07:37.904Z,1002.70
2019-01-14T03:08:37.922Z,1002.73
2019-01-14T03:09:37.882Z,1002.68
2019-01-14T03:10:37.872Z,1002.68
2019-01-14T03:11:37.859Z,1002.71
2019-01-14T03:12:37.848Z,1002.64
2019-01-14T03:13:37.857Z,1002.71
2019-01-14T03:14:37.825Z,1002.71
2019-01-14T03:15:37.814Z,1002.67
2019-01-14T03:16:37.805Z,1002.69
2019-01-14T03:17:37.799Z,1002.68
2019-01-14T03:18:37.801Z,1002.64
2019-01-14T03:19:37.771Z,1002.66
2019-01-14T03:20:37.762Z,1002.66
2019-01-14T03:21:37.759Z,1002.72
2019-01-14T03:22:37.739Z,1002.75
2019-01-14T03:23:37.752Z,1002.60
2019-01-14T03:24:37.716Z,1002.57
2019-01-14T03:25:37.708Z,1002.63
2019-01-14T03:26:37.696Z,1002.57
2019-01-14T03:27:37.686Z,1002.67
2019-01-14T03:28:37.677Z,1002.57
2019-01-14T03:29:37.684Z,1002.68
2019-01-14T03:30:37.655Z,1002.59
2019-01-14T03:31:37.641Z,1002.61
2019-01-14T03:32:37.637Z,1002.65
2019-01-14T03:33:37.637Z,1002.52
2019-01-14T03:34:37.607Z,1002.60
2019-01-14T03:35:37.595Z,1002.65
2019-01-14T03:36:37.587Z,1002.69
2019-01-14T03:37:37.574Z,1002.72
2019-01-14T03:38:37.603Z,1002.64
2019-01-14T03:39:37.554Z,1002.61
2019-01-14T03:40:37.541Z,1002.72
2019-01-14T03:41:37.531Z,1002.82
2019-01-14T03:42:37.518Z,1002.80
2019-01-14T03:43:37.507Z,1002.89
2019-01-14T03:44:38.202Z,1002.98
2019-01-14T03:45:37.484Z,1003.04
2019-01-14T03:46:37.480Z,1003.09
2019-01-14T03:47:37.462Z,1003.08
2019-01-14T03:48:37.495Z,1003.13
2019-01-14T03:49:37.453Z,1003.08
2019-01-14T03:50:37.432Z,1003.05
2019-01-14T03:51:37.423Z,1003.22
2019-01-14T03:52:37.414Z,1003.09
2019-01-14T03:53:37.399Z,1003.24
2019-01-14T03:54:37.411Z,1003.03
2019-01-14T03:55:37.375Z,1003.03
2019-01-14T03:56:37.366Z,1003.03
2019-01-14T03:57:37.355Z,1003.06
2019-01-14T03:58:37.345Z,1003.06
2019-01-14T03:59:37.354Z,1003.12
2019-01-14T04:00:37.321Z,1003.08
2019-01-14T04:01:37.311Z,1003.01
2019-01-14T04:02:37.305Z,1003.05
2019-01-14T04:03:37.290Z,1003.08
2019-01-14T04:04:38.205Z,1003.05
2019-01-14T04:05:37.266Z,1003.00
2019-01-14T04:06:37.257Z,1003.07
2019-01-14T04:07:37.245Z,1003.06
2019-01-14T04:08:37.238Z,1003.07
2019-01-14T04:09:37.225Z,1003.03
2019-01-14T04:10:37.231Z,1003.04
2019-01-14T04:11:37.201Z,1003.06
2019-01-14T04:12:37.190Z,1003.06
2019-01-14T04:13:37.182Z,1003.13
2019-01-14T04:14:37.169Z,1003.11
2019-01-14T04:15:37.188Z,1003.14
2019-01-14T04:16:37.146Z,1003.17
2019-01-14T04:17:37.134Z,1003.22
2019-01-14T04:18:37.127Z,1003.16
2019-01-14T04:19:37.116Z,1003.12
2019-01-14T04:20:37.145Z,1003.26
2019-01-14T04:21:37.090Z,1003.25
2019-01-14T04:22:37.080Z,1003.26
2019-01-14T04:23:37.069Z,1003.26
2019-01-14T04:24:37.061Z,1003.30
2019-01-14T04:25:37.047Z,1003.27
2019-01-14T04:26:37.061Z,1003.28
2019-01-14T04:27:37.027Z,1003.43
2019-01-14T04:28:37.018Z,1003.37
2019-01-14T04:29:37.004Z,1003.45
2019-01-14T04:30:36.993Z,1003.38
2019-01-14T04:31:36.981Z,1003.58
2019-01-14T04:32:36.992Z,1003.48
2019-01-14T04:33:36.963Z,1003.54
2019-01-14T04:34:36.952Z,1003.42
2019-01-14T04:35:36.937Z,1003.53
2019-01-14T04:36:36.929Z,1003.48
2019-01-14T04:37:36.937Z,1003.53
2019-01-14T04:38:36.905Z,1003.59
2019-01-14T04:39:36.897Z,1003.51
2019-01-14T04:40:36.886Z,1003.36
2019-01-14T04:41:36.872Z,1003.43
2019-01-14T04:42:36.935Z,1003.50
2019-01-14T04:43:36.852Z,1003.52
2019-01-14T04:44:36.840Z,1003.50
2019-01-14T04:45:36.831Z,1003.51
2019-01-14T04:46:36.818Z,1003.51
2019-01-14T04:47:37.206Z,1003.57
2019-01-14T04:48:36.797Z,1003.49
2019-01-14T04:49:36.785Z,1003.56
2019-01-14T04:50:36.779Z,1003.62
2019-01-14T04:51:36.762Z,1003.58
2019-01-14T04:52:36.779Z,1003.56
2019-01-14T04:53:36.755Z,1003.56
2019-01-14T04:54:36.730Z,1003.66
2019-01-14T04:55:36.724Z,1003.62
2019-01-14T04:56:36.710Z,1003.65
2019-01-14T04:57:36.698Z,1003.60
2019-01-14T04:58:36.707Z,1003.64
2019-01-14T04:59:36.677Z,1003.66
2019-01-14T05:00:36.666Z,1003.65
2019-01-14T05:01:36.654Z,1003.79
2019-01-14T05:02:36.645Z,1003.67
2019-01-14T05:03:36.657Z,1003.80
2019-01-14T05:04:36.621Z,1003.73
2019-01-14T05:05:36.611Z,1003.73
2019-01-14T05:06:36.600Z,1003.72
2019-01-14T05:07:36.588Z,1003.82
2019-01-14T05:08:36.577Z,1003.63
2019-01-14T05:09:36.585Z,1003.74
2019-01-14T05:10:36.557Z,1003.72
2019-01-14T05:11:36.547Z,1003.83
2019-01-14T05:12:36.534Z,1003.86
2019-01-14T05:13:36.526Z,1003.82
2019-01-14T05:14:36.536Z,1003.89
2019-01-14T05:15:37.080Z,1003.90
2019-01-14T05:16:36.491Z,1004.00
2019-01-14T05:17:36.477Z,1003.95
2019-01-14T05:18:36.469Z,1003.98
2019-01-14T05:19:36.478Z,1003.93
2019-01-14T05:20:36.446Z,1003.95
2019-01-14T05:21:36.435Z,1004.02
2019-01-14T05:22:36.423Z,1004.02
2019-01-14T05:23:36.413Z,1004.05
2019-01-14T05:24:37.218Z,1004.09
2019-01-14T05:25:36.390Z,1004.16
2019-01-14T05:26:36.383Z,1004.09
2019-01-14T05:27:36.371Z,1004.09
2019-01-14T05:28:36.358Z,1004.09
2019-01-14T05:29:36.370Z,1004.01
2019-01-14T05:30:36.337Z,1004.01
2019-01-14T05:31:36.328Z,1004.11
2019-01-14T05:32:36.313Z,1004.13
2019-01-14T05:33:36.305Z,1004.15
2019-01-14T05:34:37.213Z,1004.18
2019-01-14T05:35:36.284Z,1004.21
2019-01-14T05:36:36.276Z,1004.19
2019-01-14T05:37:37.792Z,1004.22
2019-01-14T05:38:36.251Z,1004.19
2019-01-14T05:39:36.260Z,1004.25
2019-01-14T05:40:36.229Z,1004.28
2019-01-14T05:41:36.216Z,1004.30
2019-01-14T05:42:36.206Z,1004.32
2019-01-14T05:43:36.401Z,1004.20
2019-01-14T05:44:37.720Z,1004.24
2019-01-14T05:45:36.174Z,1004.30
2019-01-14T05:46:36.161Z,1004.25
2019-01-14T05:47:36.151Z,1004.31
2019-01-14T05:48:36.140Z,1004.32
